createdAt,value
2022-08-01T00:02:56.486Z,45.33
2022-08-01T00:08:00.835Z,44.60
2022-08-01T00:13:03.902Z,45.00
2022-08-01T00:18:06.932Z,45.10
2022-08-01T00:23:11.145Z,45.55
2022-08-01T00:28:14.503Z,45.17
2022-08-01T00:33:17.362Z,45.55
2022-08-01T00:38:21.588Z,45.50
2022-08-01T00:43:24.620Z,44.97
2022-08-01T00:48:27.511Z,44.85
2022-08-01T00:53:51.286Z,44.63
2022-08-01T00:58:56.068Z,45.10
2022-08-01T01:04:00.109Z,45.05
2022-08-01T01:09:18.739Z,44.65
2022-08-01T01:14:29.934Z,45.15
2022-08-01T01:19:36.729Z,45.13
2022-08-01T01:24:49.065Z,44.85
2022-08-01T01:29:59.787Z,44.65
2022-08-01T01:35:07.394Z,44.55
2022-08-01T01:40:13.064Z,45.17
2022-08-01T01:45:18.076Z,44.58
2022-08-01T01:50:22.846Z,45.05
2022-08-01T01:55:27.623Z,44.28
2022-08-01T02:00:34.367Z,44.30
2022-08-01T02:05:39.439Z,44.53
2022-08-01T02:11:03.147Z,44.95
2022-08-01T02:16:08.141Z,44.33
2022-08-01T02:21:15.697Z,44.35
2022-08-01T02:26:20.163Z,45.38
2022-08-01T02:31:24.806Z,45.05
2022-08-01T02:36:33.003Z,44.38
2022-08-01T02:41:40.918Z,44.15
2022-08-01T02:46:51.180Z,44.40
2022-08-01T02:51:56.770Z,44.20
2022-08-01T02:57:01.327Z,44.45
2022-08-01T03:02:07.251Z,44.47
2022-08-01T03:07:14.436Z,44.45
2022-08-01T03:12:20.804Z,44.55
2022-08-01T03:17:27.429Z,44.20
2022-08-01T03:22:34.315Z,44.78
2022-08-01T03:27:38.965Z,44.42
2022-08-01T03:32:43.436Z,45.97
2022-08-01T03:38:14.802Z,44.33
2022-08-01T03:43:19.250Z,44.33
2022-08-01T03:48:30.634Z,44.47
2022-08-01T03:53:35.404Z,43.75
2022-08-01T03:58:41.694Z,43.95
2022-08-01T04:03:46.799Z,44.03
2022-08-01T04:08:57.201Z,43.65
2022-08-01T04:14:00.084Z,43.95
2022-08-01T04:19:04.726Z,43.33
2022-08-01T04:24:12.757Z,43.45
2022-08-01T04:29:18.362Z,44.00
2022-08-01T04:34:26.519Z,43.45
2022-08-01T04:39:33.059Z,44.22
2022-08-01T04:44:54.122Z,44.30
2022-08-01T04:49:58.951Z,44.17
2022-08-01T04:55:01.851Z,44.08
2022-08-01T05:00:07.485Z,43.95
2022-08-01T05:05:13.583Z,43.85
2022-08-01T05:10:16.609Z,43.75
2022-08-01T05:15:19.623Z,44.05
2022-08-01T05:20:23.897Z,43.53
2022-08-01T05:25:54.361Z,43.42
2022-08-01T05:30:49.874Z,43.83
2022-08-01T05:35:54.235Z,44.17
2022-08-01T05:40:57.175Z,44.15
2022-08-01T05:46:00.320Z,43.50
2022-08-01T05:51:04.824Z,43.25
2022-08-01T05:56:07.838Z,44.22
2022-08-01T06:01:11.104Z,44.30
2022-08-01T06:06:16.339Z,44.42
2022-08-01T06:11:19.270Z,43.60
2022-08-01T06:16:22.150Z,44.05
2022-08-01T06:21:26.377Z,44.13
2022-08-01T06:26:29.292Z,44.63
2022-08-01T06:31:33.874Z,45.55
2022-08-01T06:36:38.370Z,44.35
2022-08-01T06:41:42.502Z,44.10
2022-08-01T06:46:45.380Z,44.22
2022-08-01T06:51:49.698Z,44.10
2022-08-01T06:56:52.611Z,44.22
2022-08-01T07:01:55.486Z,44.55
2022-08-01T07:06:59.756Z,43.90
2022-08-01T07:12:02.774Z,43.90
2022-08-01T07:17:05.739Z,44.17
2022-08-01T07:22:09.959Z,44.78
2022-08-01T07:27:24.208Z,44.40
2022-08-01T07:32:30.255Z,44.75
2022-08-01T07:37:42.127Z,43.88
2022-08-01T07:42:51.739Z,45.55
2022-08-01T07:47:54.763Z,45.40
2022-08-01T07:52:59.118Z,45.03
2022-08-01T07:58:02.773Z,45.10
2022-08-01T08:03:06.115Z,44.72
2022-08-01T08:08:11.229Z,44.83
2022-08-01T08:13:14.180Z,45.15
2022-08-01T08:18:17.367Z,45.35
2022-08-01T08:23:42.480Z,44.30
2022-08-01T08:28:47.362Z,44.55
2022-08-01T08:33:50.267Z,44.55
2022-08-01T08:38:54.684Z,44.78
2022-08-01T08:43:58.492Z,44.58
2022-08-01T08:49:02.679Z,44.58
2022-08-01T08:54:13.682Z,44.90
2022-08-01T08:59:16.623Z,45.38
2022-08-01T09:04:19.846Z,45.45
2022-08-01T09:09:26.939Z,45.60
2022-08-01T09:14:31.421Z,45.38
2022-08-01T09:19:41.345Z,45.92
2022-08-01T09:24:59.638Z,46.03
2022-08-01T09:30:19.645Z,45.95
2022-08-01T09:35:30.839Z,46.28
2022-08-01T09:40:49.249Z,46.25
2022-08-01T09:45:53.561Z,45.72
2022-08-01T09:51:00.851Z,45.72
2022-08-01T09:56:13.586Z,45.75
2022-08-01T10:01:16.555Z,46.60
2022-08-01T10:06:24.992Z,45.97
2022-08-01T10:11:36.152Z,45.58
2022-08-01T10:16:41.197Z,45.92
2022-08-01T10:21:58.263Z,45.47
2022-08-01T10:27:08.393Z,46.45
2022-08-01T10:32:12.583Z,45.92
2022-08-01T10:37:16.865Z,45.80
2022-08-01T10:42:21.613Z,45.78
2022-08-01T10:47:49.887Z,46.00
2022-08-01T10:53:16.658Z,46.28
2022-08-01T10:58:29.986Z,46.40
2022-08-01T11:03:56.119Z,46.30
2022-08-01T11:09:00.859Z,47.33
2022-08-01T11:14:10.469Z,46.42
2022-08-01T11:19:13.640Z,46.13
2022-08-01T11:24:16.570Z,46.03
2022-08-01T11:29:22.343Z,46.20
2022-08-01T11:34:54.511Z,46.22
2022-08-01T11:40:16.636Z,46.20
2022-08-01T11:45:21.956Z,46.28
2022-08-01T11:50:35.757Z,46.17
2022-08-01T11:55:38.633Z,45.78
2022-08-01T12:00:44.044Z,46.40
2022-08-01T12:05:50.047Z,45.97
2022-08-01T12:10:52.977Z,45.95
2022-08-01T12:16:10.943Z,45.70
2022-08-01T12:21:13.849Z,46.22
2022-08-01T12:26:31.890Z,46.13
2022-08-01T12:31:36.845Z,45.47
2022-08-01T12:36:39.746Z,46.15
2022-08-01T12:41:45.197Z,46.20
2022-08-01T12:46:49.619Z,46.15
2022-08-01T12:51:56.961Z,46.67
2022-08-01T12:57:00.552Z,45.25
2022-08-01T13:02:12.088Z,45.92
2022-08-01T13:07:15.055Z,45.70
2022-08-01T13:12:17.994Z,46.28
2022-08-01T13:17:33.618Z,45.97
2022-08-01T13:22:37.419Z,47.25
2022-08-01T13:27:41.006Z,46.20
2022-08-01T13:33:02.649Z,45.75
2022-08-01T13:38:05.522Z,46.15
2022-08-01T13:43:08.730Z,45.78
2022-08-01T13:48:19.093Z,45.90
2022-08-01T13:53:22.770Z,46.03
2022-08-01T13:58:25.674Z,45.67
2022-08-01T14:03:33.812Z,46.03
2022-08-01T14:08:36.937Z,45.63
2022-08-01T14:13:45.144Z,45.28
2022-08-01T14:18:51.178Z,45.30
2022-08-01T14:23:54.091Z,45.40
2022-08-01T14:28:57.005Z,45.03
2022-08-01T14:34:01.206Z,45.25
2022-08-01T14:39:04.381Z,44.97
2022-08-01T14:44:07.444Z,44.42
2022-08-01T14:49:11.730Z,44.95
2022-08-01T14:54:14.674Z,44.67
2022-08-01T14:59:21.768Z,44.45
2022-08-01T15:04:27.509Z,44.78
2022-08-01T15:09:30.420Z,44.30
2022-08-01T15:14:51.817Z,45.15
2022-08-01T15:19:58.232Z,45.10
2022-08-01T15:25:03.280Z,44.53
2022-08-01T15:30:10.195Z,44.70
2022-08-01T15:35:17.293Z,45.00
2022-08-01T15:40:20.801Z,45.63
2022-08-01T15:51:09.553Z,44.55
2022-08-01T15:56:13.133Z,44.50
2022-08-01T16:01:22.089Z,44.70
2022-08-01T16:06:27.855Z,44.47
2022-08-01T16:11:31.861Z,44.03
2022-08-01T16:16:34.880Z,44.05
2022-08-01T16:21:56.535Z,45.33
2022-08-01T16:27:05.836Z,44.40
2022-08-01T16:32:23.792Z,44.30
2022-08-01T16:37:32.925Z,43.97
2022-08-01T16:42:55.607Z,44.47
2022-08-01T16:48:01.741Z,44.05
2022-08-01T16:53:13.101Z,44.22
2022-08-01T16:58:16.903Z,44.25
2022-08-01T17:03:51.790Z,44.30
2022-08-01T17:08:50.737Z,44.30
2022-08-01T17:14:03.125Z,44.05
2022-08-01T17:19:06.266Z,43.85
2022-08-01T17:24:16.373Z,44.10
2022-08-01T17:29:21.625Z,44.00
2022-08-01T17:40:37.502Z,44.78
2022-08-01T17:45:51.444Z,45.30
2022-08-01T17:50:54.724Z,44.15
2022-08-01T17:56:01.678Z,44.40
2022-08-01T18:01:05.071Z,44.22
2022-08-01T18:06:10.860Z,44.22
2022-08-01T18:11:16.095Z,43.97
2022-08-01T18:16:19.074Z,43.78
2022-08-01T18:21:24.662Z,44.25
2022-08-01T18:26:29.716Z,44.42
2022-08-01T18:31:33.180Z,43.78
2022-08-01T18:36:40.407Z,43.95
2022-08-01T18:41:45.810Z,43.95
2022-08-01T18:46:55.325Z,44.10
2022-08-01T18:51:58.713Z,43.95
2022-08-01T18:57:03.250Z,44.17
2022-08-01T19:02:06.499Z,44.35
2022-08-01T19:07:11.962Z,44.10
2022-08-01T19:12:17.257Z,43.65
2022-08-01T19:17:34.154Z,44.20
2022-08-01T19:22:37.524Z,44.08
2022-08-01T19:27:46.671Z,44.75
2022-08-01T19:32:50.025Z,44.42
2022-08-01T19:37:54.212Z,44.30
2022-08-01T19:43:00.744Z,46.22
2022-08-01T19:48:20.560Z,49.05
2022-08-01T19:59:38.084Z,44.25
2022-08-01T20:04:43.712Z,44.33
2022-08-01T20:09:50.697Z,43.90
2022-08-01T20:14:59.806Z,44.25
2022-08-01T20:20:08.611Z,44.42
2022-08-01T20:25:12.605Z,44.00
2022-08-01T20:30:17.026Z,44.40
2022-08-01T20:35:23.448Z,44.35
2022-08-01T20:40:46.127Z,43.75
2022-08-01T20:45:51.542Z,43.45
2022-08-01T20:51:12.676Z,44.03
2022-08-01T20:56:29.777Z,44.30
2022-08-01T21:01:39.981Z,43.83
2022-08-01T21:06:50.792Z,43.83
2022-08-01T21:12:02.102Z,44.05
2022-08-01T21:17:13.312Z,43.95
2022-08-01T21:22:27.172Z,44.28
2022-08-01T21:27:33.793Z,43.65
2022-08-01T21:32:38.735Z,44.00
2022-08-01T21:37:44.428Z,43.95
2022-08-01T21:42:48.695Z,44.03
2022-08-01T21:47:54.201Z,43.40
2022-08-01T21:53:09.527Z,43.33
2022-08-01T21:58:22.606Z,43.85
2022-08-01T22:03:31.425Z,43.47
2022-08-01T22:08:37.070Z,43.42
2022-08-01T22:13:40.008Z,43.45
2022-08-01T22:18:45.169Z,43.35
2022-08-01T22:23:48.920Z,43.65
2022-08-01T22:28:53.031Z,43.30
2022-08-01T22:33:57.650Z,43.70
2022-08-01T22:39:00.636Z,43.85
2022-08-01T22:44:09.172Z,43.35
2022-08-01T22:49:22.099Z,43.22
2022-08-01T22:54:35.706Z,43.28
2022-08-01T22:59:46.098Z,43.33
2022-08-01T23:04:52.280Z,43.35
2022-08-01T23:09:57.008Z,43.38
2022-08-01T23:15:01.897Z,43.15
2022-08-01T23:20:08.407Z,43.15
2022-08-01T23:25:13.650Z,43.05
2022-08-01T23:30:16.604Z,43.08
2022-08-01T23:35:21.524Z,42.97
2022-08-01T23:40:25.046Z,43.45
2022-08-01T23:45:28.459Z,43.30
2022-08-01T23:50:52.773Z,43.30
2022-08-01T23:55:55.712Z,43.47
